My Meet Scores
Shale Wozney, Wilmette Gymnastics - MyMeetScores.com
Top100 | Top Teams | Upcoming Meets | Completed Meets | Latest | Add Scores | Help| Support | Bookmark and Share

Shale Wozney, Wilmette Gymnastics
Personal Bests
LevelVault BarsBeamFloorAA
48.6509.450 8.7509.12534.575
58.4008.350 8.0258.45032.675
68.9009.400 9.1759.40036.750
Meet Scores
Date Meet Team Session Level Division Vault Bars Beam Floor AA
2021-05-14 Level 6 and Xcel Silver Regionals Wilmette Gymnastics 4A 6 Sr A2 0.000 17T 8.950 15 8.725 18 9.250 10T 36.000 15
2021-04-15 Illinois level 6 & Xcel Silver State Champion Wilmette Gymnastics 10 6 Sr D 8.800 21T 9.400 8 9.150 13T 9.400 15T 36.750 9
2021-02-27 2021 Energym Spring Classic Wilmette Gymnastics 6 6 Sr 8.850 4 8.200 7 8.350 10 8.950 6 34.350 6
2021-02-19 BIG Classic 2021 Wilmette Gymnastics VIR 6 *** 8.900 46T 0.000 82T 9.175 20 8.850 42T 26.925 74
2020-02-21 Kinetic Classic Wilmette Gymnastics 03 5 Older 8.100 70T 8.325 57 8.025 63 8.225 64 32.675 64
2020-01-24 Uga Invitational Wilmette Gymnastics B1 5 Jr C 8.300 12 8.300 5 7.650 13 0.000 14 24.250 14
2019-12-20 2019 Women's Hawaiian Pineapple Classic Wilmette Gymnastics 4B 5 Ages 12+ 8.050 14T 8.350 6 7.200 12 8.000 11 31.600 12
2019-12-06 Ultimate Wish Classic Wilmette Gymnastics 6B 5 SR B 8.400 17T 7.850 11 7.350 16 8.450 13 32.050 14
2019-03-22 Illinois Gymnastics State Championships Wilmette Gymnastics 11 4 Sr B 8.650 21T 9.450 6 7.725 26 8.750 21T 34.575 23
2019-02-15 Big ClassicBIG CLASSIC Wilmette Gymnastics 5A 4 Child E 8.150 9 9.050 3 8.400 8 8.525 6 34.125 5
2019-02-01 St. Valentines Classic Wilmette Gymnastics 4A 4 11 yrs. 7.900 16 8.550 12 8.600 6T 9.125 5 34.175 10T
2019-01-25 UGA Invitational Wilmette Gymnastics B06 4 Jr B 7.925 11 9.075 5 8.750 9 8.500 7 34.250 8
2018-12-14 Hawaiian Pineapple Classic Wilmette Gymnastics 9B 4 Ages11+ 7.900 15 8.750 3T 8.250 11T 8.225 6 33.125 8
2018-11-30 Ultimate Wish Classic Wilmette Gymnastics 3 4 SR B 7.800 18 8.950 9T 8.300 12T 8.600 6T 33.650 10T
2018-11-17 Paul Hamm Thanksgiving Class WOMENS Wilmette Gymnastics 6 4 Older 7.750 29 8.725 14 8.300 19T 7.550 26 32.325 22
2018-11-03 Phyllis Matras Invite Wilmette Gymnastics All 4 All 8.400 44T 8.525 32T 8.100 45 8.450 41T 33.475 38
2018-02-16 Big Classic Wilmette Gymnastics 10B 4 Child C 7.850 13 8.700 9 7.900 12 7.875 14 32.325 12
2018-01-26 2018 UGA Classic Wilmette Gymnastics B5 4 Junior 7.500 14T 8.350 6 8.200 14T 7.050 16 31.100 14
2017-12-14 2017 Women's Hawaiian Pineapple Classic Wilmette Gymnastics 6A 4 Age10 7.850 12 7.550 17 7.400 21 6.350 22 29.150 18
2017-12-01 Ultimate Wish Classic Wilmette Gymnastics 12 4 Jr C 8.175 14 7.700 13T 6.000 17 6.900 16 28.775 16
Get your scores on
a t-shirt, pin, or hoodie